Latest Weather Observations for Maroochydore

IDQ60901

Issued at 3:01 pm EST Sunday 24 May 2015 (issued every 10 minutes, with the page automatically refreshed every 10 minutes)

About weather observations | Map of Brisbane area stations | Latest observations for Brisbane area | Other Formats
Station Details ID: 040861 Name: SUNSHINE COAST AIRPORT Lat: -26.60 Lon: 153.09 Height: 3.3 m
Data from the previous 72 hours. | See also: Recent months at Maroochydore
Date/Time
EST
Tmp

°C
App
Tmp
°C
Dew
Point
°C
Rel
Hum
%
Delta-T

°C
Wind Press
QNH
hPa
Press
MSL
hPa
Rain
since
9 am
mm
Dir
 
Spd
km/h
Gust
km/h
Spd
kts
Gust
kts
24/02:30pm 19.6 16.8 14.2 71 3.1 SSE 22 32 12 17 1026.2 - 0.0
24/02:00pm 20.9 17.9 13.8 64 4.1 SSE 22 32 12 17 1026.5 - 0.0
24/01:30pm 21.0 17.8 13.2 61 4.5 SSE 22 32 12 17 1026.4 - 0.0
24/01:00pm 21.8 18.6 13.2 58 4.9 SSE 22 32 12 17 1026.3 - 0.0
24/12:30pm 22.2 18.6 13.0 56 5.3 SSE 24 33 13 18 1026.5 - 0.0
24/12:00pm 22.2 18.5 12.7 55 5.4 SSE 24 32 13 17 1026.8 1026.8 0.0
24/11:30am 22.1 18.2 13.2 57 5.1 S 26 35 14 19 1027.2 - 0.0
24/11:00am 21.7 17.5 12.5 56 5.2 S 26 37 14 20 1027.5 - 0.0
24/10:30am 21.7 17.7 13.1 58 4.9 S 26 39 14 21 1027.6 - 0.0
24/10:00am 20.7 17.3 12.4 59 4.7 S 22 30 12 16 1027.9 - 0.0
24/09:30am 19.6 16.2 12.4 63 4.0 S 22 30 12 16 1027.9 - 0.0
24/09:00am 17.9 14.9 12.1 69 3.2 S 19 26 10 14 1027.9 1027.9 0.0
24/08:30am 17.5 13.4 11.5 68 3.3 S 24 32 13 17 1027.7 - 0.0
24/08:00am 17.9 13.9 11.7 67 3.4 S 24 37 13 20 1027.3 - 0.0
24/07:30am 16.7 12.3 11.6 72 2.8 S 26 35 14 19 1027.0 - 0.0
24/07:00am 15.9 12.3 11.7 76 2.3 S 22 30 12 16 1026.6 - 0.0
24/06:30am 15.6 12.3 11.6 77 2.2 SSW 20 30 11 16 1026.3 - 0.0
24/05:30am 15.9 13.3 11.9 77 2.2 SSW 17 24 9 13 1025.4 - 0.0
24/05:00am 15.8 13.5 11.6 76 2.3 S 15 20 8 11 1025.3 - 0.0
24/04:30am 16.2 11.8 11.8 75 2.4 SSW 26 37 14 20 1025.0 - 0.0
24/04:00am 16.1 13.0 12.1 77 2.2 S 20 28 11 15 1025.1 - 0.0
24/03:30am 16.1 12.2 12.1 77 2.2 S 24 33 13 18 1025.0 - 0.0
24/03:00am 15.7 12.1 11.7 77 2.2 S 22 30 12 16 1024.9 1024.9 0.0
24/02:30am 15.4 11.9 10.8 74 2.4 SSW 20 30 11 16 1024.9 - 0.0
24/02:00am 15.4 11.4 10.6 73 2.5 S 22 28 12 15 1025.0 - 0.0
24/01:30am 15.8 11.8 10.3 70 2.9 SSW 22 28 12 15 1024.8 - 0.0
24/12:30am 15.9 12.2 10.0 68 3.1 S 20 26 11 14 1024.9 - 0.0
 
Date/Time
EST
Tmp

°C
App
Tmp
°C
Dew
Point
°C
Rel
Hum
%
Delta-T

°C
Wind Press
QNH
hPa
Press
MSL
hPa
Rain
since
9 am
mm
Dir
 
Spd
km/h
Gust
km/h
Spd
kts
Gust
kts
23/11:30pm 16.2 11.0 10.1 67 3.2 S 28 35 15 19 1024.7 - 0.0
23/11:00pm 16.3 11.8 9.9 66 3.4 S 24 33 13 18 1024.5 - 0.0
23/10:30pm 16.4 12.6 9.8 65 3.5 S 20 30 11 16 1024.7 - 0.0
23/10:00pm 16.7 12.9 9.9 64 3.6 S 20 28 11 15 1024.5 - 0.0
23/09:30pm 17.0 12.8 9.9 63 3.7 S 22 32 12 17 1024.6 - 0.0
23/08:30pm 17.4 13.7 10.3 63 3.8 S 20 30 11 16 1024.6 - 0.0
23/08:00pm 18.1 14.5 10.7 62 4.0 S 20 26 11 14 1024.6 - 0.0
23/07:30pm 18.0 14.4 10.4 61 4.1 S 20 28 11 15 1024.4 - 0.0
23/06:30pm 18.9 14.7 11.0 60 4.3 S 24 35 13 19 1024.1 - 0.0
23/05:30pm 18.3 14.6 11.4 64 3.8 S 22 33 12 18 1023.5 - 0.0
23/05:00pm 19.1 13.5 11.4 61 4.2 S 32 43 17 23 1023.2 - 0.0
23/04:30pm 19.7 14.4 11.2 58 4.7 S 30 41 16 22 1023.2 - 0.0
23/04:00pm 20.4 15.1 11.1 55 5.1 S 30 41 16 22 1023.1 - 0.0
23/03:30pm 20.7 14.7 10.8 53 5.4 SSE 33 52 18 28 1022.6 - 0.0
23/03:04pm 21.3 15.7 10.2 49 6.0 SSE 30 50 16 27 1022.2 - 0.0
23/03:00pm 21.3 15.3 10.2 49 6.0 SSE 32 48 17 26 1022.3 1022.3 0.0
23/02:34pm 21.5 14.8 9.7 47 6.3 S 35 54 19 29 1022.4 - 0.0
23/02:30pm 21.6 14.5 9.5 46 6.5 S 37 50 20 27 1022.3 - 0.0
23/02:00pm 21.5 13.8 10.0 48 6.2 SSE 41 65 22 35 1022.0 - 0.0
23/01:38pm 21.5 13.6 9.4 46 6.5 S 41 59 22 32 1021.9 - 0.0
23/01:30pm 21.5 14.1 9.7 47 6.3 SSE 39 56 21 30 1021.8 - 0.0
23/01:01pm 21.6 13.8 9.8 47 6.4 S 41 59 22 32 1022.0 - 0.0
23/01:00pm 21.6 14.3 10.1 48 6.2 S 39 54 21 29 1022.0 - 0.0
23/12:50pm 21.7 14.8 10.2 48 6.3 SSE 37 56 20 30 1022.2 - 0.0
23/12:30pm 22.2 15.5 11.0 49 6.2 S 37 54 20 29 1022.0 - 0.0
23/12:07pm 21.7 15.1 9.9 47 6.4 S 35 54 19 29 1022.1 - 0.0
23/12:00pm 21.8 14.9 10.3 48 6.2 SSE 37 54 20 29 1022.2 1022.2 0.0
23/11:31am 21.6 15.2 9.5 46 6.5 S 33 54 18 29 1022.6 - 0.0
23/11:30am 22.0 16.1 10.5 48 6.3 S 32 48 17 26 1022.6 - 0.0
23/11:12am 21.3 15.1 10.2 49 6.0 S 33 52 18 28 1022.8 - 0.0
23/11:00am 21.0 13.6 9.9 49 6.0 S 39 54 21 29 1022.9 - 0.0
23/10:30am 20.9 14.7 10.1 50 5.8 S 33 54 18 29 1022.9 - 0.0
23/10:22am 21.2 15.5 11.2 53 5.5 S 32 50 17 27 1022.9 - 0.0
23/10:00am 20.2 14.1 10.3 53 5.3 S 33 43 18 23 1022.5 - 0.0
23/09:30am 19.4 13.6 10.7 57 4.7 S 32 44 17 24 1022.3 - 0.0
23/09:00am 18.7 13.5 10.3 58 4.5 S 28 41 15 22 1022.0 1022.0 0.0
23/08:30am 18.2 13.0 10.3 60 4.2 S 28 43 15 23 1021.9 - 0.0
23/08:20am 17.6 11.9 9.8 60 4.1 S 30 48 16 26 1021.7 - 0.0
23/08:00am 17.0 11.7 9.7 62 3.8 S 28 35 15 19 1021.5 - 0.0
23/07:30am 16.1 11.0 9.3 64 3.5 SSW 26 33 14 18 1021.1 - 0.0
23/07:00am 15.6 11.3 9.3 66 3.2 SSW 22 33 12 18 1020.6 - 0.0
23/06:30am 15.3 11.0 9.2 67 3.1 SSW 22 33 12 18 1020.2 - 0.0
23/06:00am 14.4 11.4 9.2 71 2.6 SW 15 24 8 13 1020.0 1020.0 0.0
23/05:30am 14.3 10.9 9.3 72 2.6 SSW 17 22 9 12 1019.6 - 0.0
23/05:00am 14.2 11.2 9.4 73 2.5 SW 15 20 8 11 1019.4 - 0.0
23/04:30am 14.1 11.1 9.3 73 2.4 SW 15 20 8 11 1019.3 - 0.0
23/04:00am 14.6 11.3 9.4 71 2.7 SW 17 20 9 11 1019.0 - 0.0
23/03:30am 14.7 11.8 9.5 71 2.7 SW 15 22 8 12 1019.0 - 0.0
23/03:00am 15.2 11.5 9.6 69 2.9 SW 19 26 10 14 1018.8 1018.8 0.0
23/02:30am 15.0 11.7 9.6 70 2.8 SW 17 22 9 12 1018.7 - 0.0
23/02:00am 15.1 11.2 9.5 69 2.9 SW 20 26 11 14 1018.7 - 0.0
23/01:30am 14.3 11.3 9.3 72 2.6 SW 15 24 8 13 1018.9 - 0.0
23/01:00am 13.7 10.7 9.4 75 2.2 WSW 15 19 8 10 1019.0 - 0.0
23/12:30am 13.6 10.2 9.3 75 2.2 SW 17 19 9 10 1019.2 - 0.0
23/12:00am 12.9 10.3 9.2 78 1.9 WSW 13 15 7 8 1019.1 1019.1 0.0
 
Date/Time
EST
Tmp

°C
App
Tmp
°C
Dew
Point
°C
Rel
Hum
%
Delta-T

°C
Wind Press
QNH
hPa
Press
MSL
hPa
Rain
since
9 am
mm
Dir
 
Spd
km/h
Gust
km/h
Spd
kts
Gust
kts
22/11:30pm 13.0 11.0 8.7 75 2.2 WNW 9 13 5 7 1019.3 - 0.0
22/11:00pm 13.6 9.8 8.9 73 2.4 WSW 19 26 10 14 1019.1 - 0.0
22/10:30pm 13.2 11.2 8.7 74 2.3 WSW 9 15 5 8 1019.4 - 0.0
22/10:00pm 13.7 10.1 8.5 71 2.6 WSW 17 24 9 13 1019.3 - 0.0
22/09:30pm 13.4 10.3 8.7 73 2.4 W 15 20 8 11 1019.2 - 0.0
22/09:00pm 13.0 10.2 8.5 74 2.2 W 13 17 7 9 1019.1 1019.1 0.0
22/08:30pm 12.3 9.8 8.4 77 1.9 WNW 11 17 6 9 1018.9 - 0.0
22/08:00pm 11.6 9.0 7.7 77 1.9 N 11 13 6 7 1018.5 - 0.0
22/07:30pm 13.7 12.0 7.5 66 3.0 W 6 15 3 8 1018.4 - 0.0
22/07:00pm 14.6 11.5 7.4 62 3.5 WSW 13 20 7 11 1017.9 - 0.0
22/06:30pm 14.9 9.4 7.5 61 3.7 WSW 26 37 14 20 1017.2 - 0.0
22/06:00pm 14.7 10.0 7.7 63 3.5 WSW 22 30 12 16 1017.1 1017.1 0.0
22/05:30pm 15.2 10.1 7.5 60 3.8 W 24 32 13 17 1016.8 - 0.0
22/05:00pm 15.8 10.9 7.0 56 4.3 WSW 22 30 12 16 1016.6 - 0.0
22/04:30pm 16.8 10.8 6.9 52 4.9 WSW 28 39 15 21 1016.2 - 0.0
22/04:07pm 17.8 11.6 6.3 47 5.7 WSW 28 46 15 25 1016.0 - 0.0
22/04:00pm 17.9 10.9 6.1 46 5.8 W 32 46 17 25 1015.8 - 0.0
22/03:30pm 18.7 11.6 6.5 45 6.1 WSW 33 46 18 25 1015.3 - 0.0
22/03:20pm 18.9 11.4 6.4 44 6.2 WSW 35 54 19 29 1015.2 - 0.0
22/03:00pm 19.1 12.1 5.9 42 6.5 WSW 32 46 17 25 1015.2 1015.2 0.0
22/02:30pm 19.3 12.3 6.1 42 6.5 WSW 32 46 17 25 1015.2 - 0.0
22/02:00pm 20.0 12.7 7.1 43 6.5 WSW 35 50 19 27 1015.2 - 0.0
22/01:44pm 20.8 15.1 8.4 45 6.5 WSW 28 46 15 25 1015.2 - 0.0
22/01:30pm 20.3 14.4 7.3 43 6.6 WSW 28 39 15 21 1015.3 - 0.0
22/01:00pm 20.2 14.9 6.9 42 6.7 WSW 24 37 13 20 1015.7 - 0.0
22/12:30pm 20.1 14.8 6.8 42 6.7 W 24 35 13 19 1016.0 - 0.0
22/12:00pm 19.7 15.3 7.4 45 6.3 W 20 35 11 19 1016.3 1016.3 0.0
22/11:30am 19.4 14.4 8.1 48 5.8 WSW 24 35 13 19 1016.7 - 0.0
22/11:00am 19.2 15.2 9.1 52 5.3 WSW 20 32 11 17 1017.1 - 0.0
22/10:30am 19.1 15.5 10.4 57 4.7 SW 20 28 11 15 1017.2 - 0.0
22/10:00am 19.0 15.8 11.1 60 4.3 WSW 19 28 10 15 1017.4 - 0.0
22/09:30am 17.6 14.0 10.0 61 4.0 WSW 19 24 10 13 1017.7 - 0.0
22/09:00am 18.5 15.6 11.1 62 4.0 SW 17 20 9 11 1017.6 1017.6 5.4
22/08:30am 17.3 14.4 11.1 67 3.3 WSW 17 22 9 12 1017.3 - 5.4
22/08:00am 16.2 14.3 12.9 81 1.8 W 15 19 8 10 1017.0 - 5.4
22/07:30am 14.9 14.0 13.6 92 0.7 W 11 15 6 8 1017.0 - 5.4
22/07:00am 15.4 14.7 14.4 94 0.6 W 11 13 6 7 1016.8 - 5.4
22/06:30am 16.2 16.6 15.4 95 0.5 WSW 7 9 4 5 1016.7 - 5.4
22/06:00am 16.3 16.8 15.5 95 0.5 WSW 7 9 4 5 1016.0 1016.0 5.4
22/05:30am 16.4 18.2 15.6 95 0.5 CALM 0 0 0 0 1015.7 - 5.4
22/05:11am 16.6 17.8 15.8 95 0.5 NNW 4 6 2 3 1015.7 - 5.4
22/05:00am 16.6 18.1 15.8 95 0.5 NNW 2 7 1 4 1015.5 - 5.4
22/04:30am 16.7 18.7 15.9 95 0.5 CALM 0 0 0 0 1015.3 - 5.4
22/04:21am 16.7 18.7 15.9 95 0.5 CALM 0 0 0 0 1015.5 - 5.4
22/04:00am 16.6 18.5 15.8 95 0.5 CALM 0 0 0 0 1015.5 - 5.4
22/03:48am 16.6 18.5 15.8 95 0.5 CALM 0 0 0 0 1016.0 - 5.2
22/03:30am 16.6 17.8 15.8 95 0.5 NNW 4 7 2 4 1015.9 - 5.0
22/03:19am 16.6 17.2 15.8 95 0.5 N 7 9 4 5 1016.1 - 4.4
22/03:00am 16.8 18.8 16.0 95 0.5 CALM 0 0 0 0 1015.9 1015.9 4.0
22/02:57am 16.8 18.8 16.0 95 0.5 CALM 0 0 0 0 1016.0 - 3.8
22/02:30am 16.8 17.5 16.0 95 0.5 WNW 7 7 4 4 1016.1 - 3.4
22/02:00am 16.7 17.3 15.7 94 0.6 WNW 7 7 4 4 1016.3 - 3.0
22/01:30am 16.7 16.5 15.7 94 0.6 SSW 11 15 6 8 1016.2 - 2.8
22/01:00am 16.8 17.4 15.7 93 0.6 SSE 7 11 4 6 1016.7 - 2.8
22/12:30am 17.2 17.5 15.9 92 0.8 S 9 13 5 7 1017.3 - 2.2
22/12:00am 17.9 18.2 15.9 88 1.2 SW 9 15 5 8 1017.4 1017.4 1.2
 
Date/Time
EST
Tmp

°C
App
Tmp
°C
Dew
Point
°C
Rel
Hum
%
Delta-T

°C
Wind Press
QNH
hPa
Press
MSL
hPa
Rain
since
9 am
mm
Dir
 
Spd
km/h
Gust
km/h
Spd
kts
Gust
kts
21/11:30pm 19.3 18.2 14.3 73 2.9 S 13 13 7 7 1016.9 - 0.2
21/11:00pm 19.3 19.5 14.8 75 2.6 S 7 11 4 6 1017.0 - 0.2
21/10:30pm 19.2 19.6 15.3 78 2.3 SSE 7 9 4 5 1017.1 - 0.2
21/10:00pm 19.4 19.7 14.9 75 2.6 S 7 9 4 5 1017.4 - 0.2
21/09:30pm 19.4 19.9 15.1 76 2.5 S 6 7 3 4 1017.3 - 0.2
21/09:00pm 19.6 19.9 15.0 75 2.7 SSE 7 9 4 5 1017.4 1017.4 0.2
21/08:30pm 19.8 20.2 14.8 73 2.9 SE 6 7 3 4 1017.3 - 0.2
21/08:00pm 20.4 19.8 14.5 69 3.4 SSW 11 13 6 7 1017.3 - 0.2
21/07:30pm 20.6 19.6 14.5 68 3.6 S 13 17 7 9 1017.3 - 0.2
21/07:00pm 20.5 18.4 15.1 71 3.2 SSW 20 30 11 16 1017.2 - 0.2
21/06:30pm 21.7 19.6 14.8 65 4.1 SSW 19 32 10 17 1016.9 - 0.2
21/06:00pm 22.0 19.9 16.1 69 3.6 SSW 22 32 12 17 1016.7 1016.7 0.2
21/05:30pm 22.2 21.3 18.2 78 2.5 S 20 24 11 13 1016.2 - 0.2
21/05:00pm 22.4 21.9 19.2 82 2.0 S 20 28 11 15 1016.0 - 0.2
21/04:30pm 22.6 24.0 20.3 87 1.5 NNE 13 17 7 9 1015.3 - 0.2
21/04:00pm 24.1 24.7 20.2 79 2.5 NNE 17 19 9 10 1015.2 - 0.2
21/03:30pm 25.4 26.4 20.2 73 3.4 NE 15 19 8 10 1015.0 - 0.2

Latest Capital City Observations: Canberra | Sydney | Melbourne | Brisbane | Adelaide | Perth | Hobart | Darwin

Other Formats:

Comma delimited format used in spreadsheet applications
http://www.bom.gov.au/fwo/IDQ60901/IDQ60901.94569.axf

JavaScript Object Notation format (JSON) in row-major order
http://www.bom.gov.au/fwo/IDQ60901/IDQ60901.94569.json